Time;durP1;ratioP1;P1;durP2;ratioP2;P2;SDS_P1;SDS_P2;PMS_P1;PMS_P2;Temp;Humidity;BMP_temperature;BMP_pressure;BME280_temperature;BME280_humidity;BME280_pressure;Samples;Min_cycle;Max_cycle;Signal;HPM_P1;HPM_P2
2023/03/21 00:00:16;;;;;;;;;;;;;;;;;;1030470;28;2724;-53
2023/03/21 00:01:03;;;;;;;;;;;;;;;;;;1032706;28;3910;-55
2023/03/21 00:01:33;;;;;;;;;;;;;;;;;;1032851;28;4570;-50
2023/03/21 00:02:03;;;;;;;;;;;;;;;;;;1031559;28;2828;-54
2023/03/21 00:02:34;;;;;;;;;;;;;;;;;;1028365;28;4013;-56
2023/03/21 00:03:04;;;;;;;;;;;;;;;;;;1033011;28;3074;-54
2023/03/21 00:03:35;;;;;;;;;;;;;;;;;;1031532;28;4135;-54
2023/03/21 00:04:05;;;;;;;;;;;;;;;;;;1034491;28;1609;-53
2023/03/21 00:04:35;;;;;;;;;;;;;;;;;;1033186;28;4068;-54
2023/03/21 00:05:06;;;;;;;;;;;;;;;;;;1034946;28;1793;-55
2023/03/21 00:05:40;;;;;;;;;;;;;;;;;;1032910;28;3888;-55
2023/03/21 00:06:11;;;;;;;;;;;;;;;;;;1035237;28;2972;-52
2023/03/21 00:06:42;;;;;;;;;;;;;;;;;;1032383;28;3753;-56
2023/03/21 00:07:12;;;;;;;;;;;;;;;;;;1033554;28;1788;-53
2023/03/21 00:07:42;;;;;;;;;;;;;;;;;;1033608;28;4037;-52
2023/03/21 00:08:13;;;;;;;;;;;;;;;;;;1034790;28;2797;-56
2023/03/21 00:08:43;;;;;;;;;;;;;;;;;;1033087;28;3946;-54
2023/03/21 00:09:13;;;;;;;;;;;;;;;;;;1032242;28;2813;-53
2023/03/21 00:09:44;;;;;;;;;;;;;;;;;;1035010;28;4032;-55
2023/03/21 00:10:14;;;;;;;;;;;;;;;;;;1032953;28;4712;-56
2023/03/21 00:10:45;;;;;;;;;;;;;;;;;;1032695;28;4057;-55
2023/03/21 00:11:15;;;;;;;;;;;;;;;;;;1031098;28;2754;-54
2023/03/21 00:11:45;;;;;;;;;;;;;;;;;;1034512;28;3935;-54
2023/03/21 00:12:16;;;;;;;;;;;;;;;;;;1035088;28;1937;-55
2023/03/21 00:12:49;;;;;;;;;;;;;;;;;;1031349;28;3872;-51
2023/03/21 00:13:19;;;;;;;;;;;;;;;;;;1029716;28;3059;-54
2023/03/21 00:13:49;;;;;;;;;;;;;;;;;;1031387;28;4039;-54
2023/03/21 00:14:20;;;;;;;;;;;;;;;;;;1033380;28;2260;-52
2023/03/21 00:14:52;;;;;;;;;;;;;;;;;;1033433;28;4010;-54
2023/03/21 00:15:25;;;;;;;;;;;;;;;;;;1030798;28;3921;-53
2023/03/21 00:15:55;;;;;;;;;;;;;;;;;;1034151;28;2734;-52
2023/03/21 00:16:25;;;;;;;;;;;;;;;;;;1034749;28;3884;-56
2023/03/21 00:16:56;;;;;;;;;;;;;;;;;;1033365;28;2871;-52
2023/03/21 00:17:31;;;;;;;;;;;;;;;;;;1032586;28;4075;-54
2023/03/21 00:18:02;;;;;;;;;;;;;;;;;;1033844;28;2829;-54
2023/03/21 00:18:35;;;;;;;;;;;;;;;;;;1034886;28;4055;-53
2023/03/21 00:19:06;;;;;;;;;;;;;;;;;;1034061;28;1800;-55
2023/03/21 00:19:37;;;;;;;;;;;;;;;;;;1033707;28;3883;-54
2023/03/21 00:20:14;;;;;;;;;;;;;;;;;;1032945;28;2775;-54
2023/03/21 00:20:46;;;;;;;;;;;;;;;;;;1035038;28;3763;-54
2023/03/21 00:21:18;;;;;;;;;;;;;;;;;;1033402;28;2659;-55
2023/03/21 00:21:51;;;;;;;;;;;;;;;;;;1034877;28;3744;-57
2023/03/21 00:22:21;;;;;;;;;;;;;;;;;;1034405;28;2993;-55
2023/03/21 00:22:51;;;;;;;;;;;;;;;;;;1034624;28;3821;-54
2023/03/21 00:23:22;;;;;;;;;;;;;;;;;;1033106;28;2473;-51
2023/03/21 00:23:52;;;;;;;;;;;;;;;;;;1034450;28;3935;-55
2023/03/21 00:24:23;;;;;;;;;;;;;;;;;;1033795;28;4034;-52
2023/03/21 00:24:53;;;;;;;;;;;;;;;;;;1036058;28;1796;-52
2023/03/21 00:25:24;;;;;;;;;;;;;;;;;;1032177;28;3787;-56
2023/03/21 00:25:54;;;;;;;;;;;;;;;;;;1033702;28;1904;-53
2023/03/21 00:26:24;;;;;;;;;;;;;;;;;;1033744;28;4127;-55
2023/03/21 00:26:55;;;;;;;;;;;;;;;;;;1032183;28;2765;-55
2023/03/21 00:27:26;;;;;;;;;;;;;;;;;;1032187;28;4226;-56
2023/03/21 00:27:56;;;;;;;;;;;;;;;;;;1032833;28;2830;-57
2023/03/21 00:28:27;;;;;;;;;;;;;;;;;;1033474;28;4042;-55
2023/03/21 00:28:57;;;;;;;;;;;;;;;;;;1031428;28;2531;-53
2023/03/21 00:29:27;;;;;;;;;;;;;;;;;;1033357;28;4044;-55
2023/03/21 00:29:58;;;;;;;;;;;;;;;;;;1034504;28;1867;-55
2023/03/21 00:30:28;;;;;;;;;;;;;;;;;;1031194;28;4079;-55
2023/03/21 00:30:59;;;;;;;;;;;;;;;;;;1033245;28;1827;-56
2023/03/21 00:31:29;;;;;;;;;;;;;;;;;;1033362;28;3914;-53
2023/03/21 00:31:59;;;;;;;;;;;;;;;;;;1035206;28;1787;-52
2023/03/21 00:32:30;;;;;;;;;;;;;;;;;;1033296;28;4086;-56
2023/03/21 00:33:00;;;;;;;;;;;;;;;;;;1034569;28;3044;-54
2023/03/21 00:33:30;;;;;;;;;;;;;;;;;;1031648;28;4038;-55
2023/03/21 00:34:01;;;;;;;;;;;;;;;;;;1034198;28;1710;-53
2023/03/21 00:34:32;;;;;;;;;;;;;;;;;;1033494;28;4085;-55
2023/03/21 00:35:02;;;;;;;;;;;;;;;;;;1033537;28;2790;-55
2023/03/21 00:35:33;;;;;;;;;;;;;;;;;;1032761;28;4075;-56
2023/03/21 00:36:03;;;;;;;;;;;;;;;;;;1034502;28;1768;-57
2023/03/21 00:36:33;;;;;;;;;;;;;;;;;;1033080;28;4062;-52
2023/03/21 00:37:06;;;;;;;;;;;;;;;;;;1035277;28;2761;-54
2023/03/21 00:37:36;;;;;;;;;;;;;;;;;;1033350;28;4056;-56
2023/03/21 00:38:06;;;;;;;;;;;;;;;;;;1034500;28;1567;-55
2023/03/21 00:38:37;;;;;;;;;;;;;;;;;;1034107;28;4054;-53
2023/03/21 00:39:07;;;;;;;;;;;;;;;;;;1034459;28;1828;-55
2023/03/21 00:39:37;;;;;;;;;;;;;;;;;;1034726;28;4268;-54
2023/03/21 00:40:09;;;;;;;;;;;;;;;;;;1032886;28;1874;-52
2023/03/21 00:40:39;;;;;;;;;;;;;;;;;;1034853;28;4029;-53
2023/03/21 00:41:10;;;;;;;;;;;;;;;;;;1033632;28;1954;-53
2023/03/21 00:41:41;;;;;;;;;;;;;;;;;;1034230;28;4150;-53
2023/03/21 00:42:11;;;;;;;;;;;;;;;;;;1033807;28;2799;-54
2023/03/21 00:42:41;;;;;;;;;;;;;;;;;;1034410;28;4300;-53
2023/03/21 00:43:13;;;;;;;;;;;;;;;;;;1032525;28;2831;-56
2023/03/21 00:43:43;;;;;;;;;;;;;;;;;;1031033;28;3849;-55
2023/03/21 00:44:14;;;;;;;;;;;;;;;;;;1033584;28;2574;-53
2023/03/21 00:44:44;;;;;;;;;;;;;;;;;;1033278;28;3982;-52
2023/03/21 00:45:15;;;;;;;;;;;;;;;;;;1034554;28;3126;-56
2023/03/21 00:45:45;;;;;;;;;;;;;;;;;;1033718;28;4408;-56
2023/03/21 00:46:16;;;;;;;;;;;;;;;;;;1032735;28;2793;-54
2023/03/21 00:46:46;;;;;;;;;;;;;;;;;;1031385;28;4255;-56
2023/03/21 00:47:16;;;;;;;;;;;;;;;;;;1034301;28;2834;-55
2023/03/21 00:47:47;;;;;;;;;;;;;;;;;;1030935;28;4023;-54
2023/03/21 00:48:17;;;;;;;;;;;;;;;;;;1033590;28;2818;-54
2023/03/21 00:48:48;;;;;;;;;;;;;;;;;;1034472;28;3948;-54
2023/03/21 00:49:20;;;;;;;;;;;;;;;;;;1034529;28;1827;-51
2023/03/21 00:49:51;;;;;;;;;;;;;;;;;;1032971;28;3811;-55
2023/03/21 00:50:21;;;;;;;;;;;;;;;;;;1034882;28;1835;-54
2023/03/21 00:50:53;;;;;;;;;;;;;;;;;;1034828;28;3916;-54
2023/03/21 00:51:26;;;;;;;;;;;;;;;;;;1033758;28;3795;-55
2023/03/21 00:51:56;;;;;;;;;;;;;;;;;;1034830;28;1834;-54
2023/03/21 00:52:26;;;;;;;;;;;;;;;;;;1034134;28;3888;-57
2023/03/21 00:52:57;;;;;;;;;;;;;;;;;;1035088;28;1793;-54
2023/03/21 00:53:27;;;;;;;;;;;;;;;;;;1033974;28;3951;-56
2023/03/21 00:53:58;;;;;;;;;;;;;;;;;;1032260;28;2160;-54
2023/03/21 00:54:28;;;;;;;;;;;;;;;;;;1033620;28;4085;-57
2023/03/21 00:54:58;;;;;;;;;;;;;;;;;;1034674;28;1837;-54
2023/03/21 00:55:29;;;;;;;;;;;;;;;;;;1031169;28;3873;-55
2023/03/21 00:55:59;;;;;;;;;;;;;;;;;;1033543;28;2793;-55
2023/03/21 00:56:29;;;;;;;;;;;;;;;;;;1033321;28;3881;-55
2023/03/21 00:57:01;;;;;;;;;;;;;;;;;;1038082;28;2935;-55
2023/03/21 00:57:32;;;;;;;;;;;;;;;;;;1037909;28;3910;-55
2023/03/21 00:58:02;;;;;;;;;;;;;;;;;;1036462;28;2516;-54
2023/03/21 00:58:32;;;;;;;;;;;;;;;;;;1035641;28;4047;-56
2023/03/21 00:59:02;;;;;;;;;;;;;;;;;;1038222;28;3099;-54
2023/03/21 00:59:33;;;;;;;;;;;;;;;;;;1037078;28;4139;-52
2023/03/21 01:00:06;;;;;;;;;;;;;;;;;;1035585;28;2329;-54
2023/03/21 01:00:37;;;;;;;;;;;;;;;;;;1037053;28;4090;-57
2023/03/21 01:01:08;;;;;;;;;;;;;;;;;;1036173;28;3213;-52
2023/03/21 01:01:38;;;;;;;;;;;;;;;;;;1035512;28;4092;-54
2023/03/21 01:02:13;;;;;;;;;;;;;;;;;;1037196;28;1955;-55
2023/03/21 01:02:56;;;;;;;;;;;;;;;;;;1037260;28;3985;-52
2023/03/21 01:03:27;;;;;;;;;;;;;;;;;;1038365;28;4037;-53
2023/03/21 01:04:09;;;;;;;;;;;;;;;;;;1038547;28;1733;-55
2023/03/21 01:04:39;;;;;;;;;;;;;;;;;;1036947;28;3779;-56
2023/03/21 01:05:10;;;;;;;;;;;;;;;;;;1036287;28;1859;-51
2023/03/21 01:06:31;;;;;;;;;;;;;;;;;;1037358;28;3778;-56
2023/03/21 01:07:02;;;;;;;;;;;;;;;;;;1035346;28;3135;-56
2023/03/21 01:07:32;;;;;;;;;;;;;;;;;;1032941;28;3918;-59
2023/03/21 01:08:02;;;;;;;;;;;;;;;;;;1035047;28;2822;-51
2023/03/21 01:08:34;;;;;;;;;;;;;;;;;;1037205;28;3950;-53
2023/03/21 01:09:07;;;;;;;;;;;;;;;;;;1038068;28;1879;-54
2023/03/21 01:09:37;;;;;;;;;;;;;;;;;;1035448;28;4084;-53
2023/03/21 01:10:09;;;;;;;;;;;;;;;;;;1038079;28;2981;-51
2023/03/21 01:10:40;;;;;;;;;;;;;;;;;;1035989;28;4010;-52
2023/03/21 01:11:12;;;;;;;;;;;;;;;;;;1036920;28;2821;-56
2023/03/21 01:11:42;;;;;;;;;;;;;;;;;;1037557;28;4032;-55
2023/03/21 01:12:13;;;;;;;;;;;;;;;;;;1035395;28;2733;-54
2023/03/21 01:12:43;;;;;;;;;;;;;;;;;;1036901;28;3729;-55
2023/03/21 01:13:14;;;;;;;;;;;;;;;;;;1038539;28;2804;-53
2023/03/21 01:13:45;;;;;;;;;;;;;;;;;;1036100;28;4213;-50
2023/03/21 01:14:16;;;;;;;;;;;;;;;;;;1035823;28;2762;-51
2023/03/21 01:14:47;;;;;;;;;;;;;;;;;;1032449;28;4231;-55
2023/03/21 01:15:17;;;;;;;;;;;;;;;;;;1038800;28;1799;-53
2023/03/21 01:15:49;;;;;;;;;;;;;;;;;;1036027;28;4131;-54
2023/03/21 01:16:19;;;;;;;;;;;;;;;;;;1038634;28;3155;-54
2023/03/21 01:16:51;;;;;;;;;;;;;;;;;;1037923;28;4004;-53
2023/03/21 01:17:21;;;;;;;;;;;;;;;;;;1037656;28;2317;-54
2023/03/21 01:17:52;;;;;;;;;;;;;;;;;;1034252;28;3929;-55
2023/03/21 01:18:24;;;;;;;;;;;;;;;;;;1036705;28;2818;-51
2023/03/21 01:18:55;;;;;;;;;;;;;;;;;;1037033;28;3806;-52
2023/03/21 01:19:27;;;;;;;;;;;;;;;;;;1036532;28;4325;-55
2023/03/21 01:19:57;;;;;;;;;;;;;;;;;;1036280;28;2525;-54
2023/03/21 01:20:28;;;;;;;;;;;;;;;;;;1036478;28;4053;-55
2023/03/21 01:20:59;;;;;;;;;;;;;;;;;;1037647;28;2645;-53
2023/03/21 01:21:30;;;;;;;;;;;;;;;;;;1036300;28;4087;-53
2023/03/21 01:22:00;;;;;;;;;;;;;;;;;;1035976;28;1815;-55
2023/03/21 01:22:31;;;;;;;;;;;;;;;;;;1034988;28;5025;-55
2023/03/21 01:23:01;;;;;;;;;;;;;;;;;;1035870;28;3140;-52
2023/03/21 01:23:31;;;;;;;;;;;;;;;;;;1036719;28;4575;-55
2023/03/21 01:24:02;;;;;;;;;;;;;;;;;;1037377;28;2808;-53
2023/03/21 01:24:32;;;;;;;;;;;;;;;;;;1038157;28;3808;-53
2023/03/21 01:25:02;;;;;;;;;;;;;;;;;;1034326;28;2746;-54
2023/03/21 01:25:33;;;;;;;;;;;;;;;;;;1038387;28;3877;-53
2023/03/21 01:26:03;;;;;;;;;;;;;;;;;;1038322;28;1914;-54
2023/03/21 01:26:36;;;;;;;;;;;;;;;;;;1037756;28;4238;-53
2023/03/21 01:27:06;;;;;;;;;;;;;;;;;;1039931;28;2809;-55
2023/03/21 01:27:36;;;;;;;;;;;;;;;;;;1041832;28;3855;-55
2023/03/21 01:28:07;;;;;;;;;;;;;;;;;;1040642;28;2876;-55
2023/03/21 01:28:37;;;;;;;;;;;;;;;;;;1041699;28;4048;-52
2023/03/21 01:29:08;;;;;;;;;;;;;;;;;;1037483;28;1794;-55
2023/03/21 01:29:38;;;;;;;;;;;;;;;;;;1038775;28;3862;-54
2023/03/21 01:30:09;;;;;;;;;;;;;;;;;;1035423;28;2630;-53
2023/03/21 01:30:43;;;;;;;;;;;;;;;;;;1038061;28;4043;-53
2023/03/21 01:31:17;;;;;;;;;;;;;;;;;;1037795;28;2234;-53
2023/03/21 01:31:48;;;;;;;;;;;;;;;;;;1038493;28;4035;-53
2023/03/21 01:32:18;;;;;;;;;;;;;;;;;;1038130;28;1803;-54
2023/03/21 01:32:49;;;;;;;;;;;;;;;;;;1037541;28;3851;-55
2023/03/21 01:33:19;;;;;;;;;;;;;;;;;;1038359;28;2985;-53
2023/03/21 01:33:50;;;;;;;;;;;;;;;;;;1038512;28;3957;-53
2023/03/21 01:34:20;;;;;;;;;;;;;;;;;;1038360;28;2399;-52
2023/03/21 01:34:50;;;;;;;;;;;;;;;;;;1037072;28;3897;-51
2023/03/21 01:35:21;;;;;;;;;;;;;;;;;;1038741;28;1957;-51
2023/03/21 01:35:51;;;;;;;;;;;;;;;;;;1038560;28;3773;-53
2023/03/21 01:36:23;;;;;;;;;;;;;;;;;;1039125;28;1698;-53
2023/03/21 01:36:53;;;;;;;;;;;;;;;;;;1037420;28;3874;-54
2023/03/21 01:37:25;;;;;;;;;;;;;;;;;;1037504;28;4045;-54
2023/03/21 01:37:55;;;;;;;;;;;;;;;;;;1038443;28;2675;-52
2023/03/21 01:38:26;;;;;;;;;;;;;;;;;;1037479;28;4248;-51
2023/03/21 01:38:56;;;;;;;;;;;;;;;;;;1037754;28;2777;-53
2023/03/21 01:39:26;;;;;;;;;;;;;;;;;;1037582;28;3918;-55
2023/03/21 01:39:56;;;;;;;;;;;;;;;;;;1037682;28;3048;-54
2023/03/21 01:40:27;;;;;;;;;;;;;;;;;;1038951;28;4067;-50
2023/03/21 01:40:59;;;;;;;;;;;;;;;;;;1038391;28;1814;-53
2023/03/21 01:41:31;;;;;;;;;;;;;;;;;;1036592;28;3988;-55
2023/03/21 01:42:01;;;;;;;;;;;;;;;;;;1037655;28;2557;-53
2023/03/21 01:42:31;;;;;;;;;;;;;;;;;;1036668;28;4071;-55
2023/03/21 01:43:02;;;;;;;;;;;;;;;;;;1037660;28;2740;-50
2023/03/21 01:43:33;;;;;;;;;;;;;;;;;;1036864;28;3799;-52
2023/03/21 01:44:04;;;;;;;;;;;;;;;;;;1039117;28;2102;-51
2023/03/21 01:44:51;;;;;;;;;;;;;;;;;;1038262;28;4156;-54
2023/03/21 01:45:40;;;;;;;;;;;;;;;;;;1037076;28;2750;-52
2023/03/21 01:46:30;;;;;;;;;;;;;;;;;;1035836;28;3912;-54
2023/03/21 01:47:00;;;;;;;;;;;;;;;;;;1036442;28;3879;-53
2023/03/21 01:47:30;;;;;;;;;;;;;;;;;;1037270;28;4268;-54
2023/03/21 01:48:01;;;;;;;;;;;;;;;;;;1037147;28;2791;-55
2023/03/21 01:48:32;;;;;;;;;;;;;;;;;;1037524;28;3790;-51
2023/03/21 01:49:14;;;;;;;;;;;;;;;;;;1036437;28;2503;-55
2023/03/21 01:49:46;;;;;;;;;;;;;;;;;;1036674;28;4053;-54
2023/03/21 01:50:20;;;;;;;;;;;;;;;;;;1037570;28;2642;-53
2023/03/21 01:50:51;;;;;;;;;;;;;;;;;;1036141;28;4065;-54
2023/03/21 01:51:22;;;;;;;;;;;;;;;;;;1037899;28;1822;-55
2023/03/21 01:51:58;;;;;;;;;;;;;;;;;;1038689;28;3859;-52
2023/03/21 01:52:31;;;;;;;;;;;;;;;;;;1037391;28;4087;-54
2023/03/21 01:53:02;;;;;;;;;;;;;;;;;;1037022;28;2715;-54
2023/03/21 01:53:35;;;;;;;;;;;;;;;;;;1036342;28;3895;-53
2023/03/21 01:54:08;;;;;;;;;;;;;;;;;;1034736;28;2877;-54
2023/03/21 01:54:40;;;;;;;;;;;;;;;;;;1038594;28;4038;-51
2023/03/21 01:55:12;;;;;;;;;;;;;;;;;;1034263;28;2931;-52
2023/03/21 01:55:43;;;;;;;;;;;;;;;;;;1037780;28;4072;-52
2023/03/21 01:56:17;;;;;;;;;;;;;;;;;;1037351;28;1653;-52
2023/03/21 01:56:47;;;;;;;;;;;;;;;;;;1037651;28;3728;-56
2023/03/21 01:57:21;;;;;;;;;;;;;;;;;;1037435;28;1989;-54
2023/03/21 01:57:53;;;;;;;;;;;;;;;;;;1037206;28;3879;-54
2023/03/21 01:58:23;;;;;;;;;;;;;;;;;;1035744;28;4066;-52
2023/03/21 01:58:57;;;;;;;;;;;;;;;;;;1037272;28;2925;-56
2023/03/21 01:59:30;;;;;;;;;;;;;;;;;;1038699;28;4049;-52
2023/03/21 02:00:11;;;;;;;;;;;;;;;;;;1035375;28;2698;-55
2023/03/21 02:00:42;;;;;;;;;;;;;;;;;;1036820;28;4263;-55
2023/03/21 02:01:14;;;;;;;;;;;;;;;;;;1037112;28;2324;-51
2023/03/21 02:01:45;;;;;;;;;;;;;;;;;;1037060;28;4084;-53
2023/03/21 02:02:22;;;;;;;;;;;;;;;;;;1034843;28;2955;-52
2023/03/21 02:02:58;;;;;;;;;;;;;;;;;;1036791;28;3717;-53
2023/03/21 02:03:36;;;;;;;;;;;;;;;;;;1034984;28;3898;-52
2023/03/21 02:04:07;;;;;;;;;;;;;;;;;;1036922;28;1866;-54
2023/03/21 02:04:38;;;;;;;;;;;;;;;;;;1034560;28;3830;-53
2023/03/21 02:05:09;;;;;;;;;;;;;;;;;;1036110;28;3005;-54
2023/03/21 02:06:02;;;;;;;;;;;;;;;;;;1033899;28;4158;-54
2023/03/21 02:06:35;;;;;;;;;;;;;;;;;;1035961;28;3986;-55
2023/03/21 02:07:10;;;;;;;;;;;;;;;;;;1034594;28;4644;-55
2023/03/21 02:07:42;;;;;;;;;;;;;;;;;;1034960;28;3874;-54
2023/03/21 02:08:13;;;;;;;;;;;;;;;;;;1038332;28;1687;-55
2023/03/21 02:08:43;;;;;;;;;;;;;;;;;;1037680;28;4031;-55
2023/03/21 02:09:17;;;;;;;;;;;;;;;;;;1035058;28;1887;-50
2023/03/21 02:09:49;;;;;;;;;;;;;;;;;;1037825;28;3983;-52
2023/03/21 02:10:19;;;;;;;;;;;;;;;;;;1035921;28;2666;-54
2023/03/21 02:10:50;;;;;;;;;;;;;;;;;;1038125;28;3848;-52
2023/03/21 02:11:21;;;;;;;;;;;;;;;;;;1038384;28;2259;-54
2023/03/21 02:11:53;;;;;;;;;;;;;;;;;;1037882;28;3952;-56
2023/03/21 02:12:24;;;;;;;;;;;;;;;;;;1036687;28;4109;-51
2023/03/21 02:12:56;;;;;;;;;;;;;;;;;;1035887;28;2409;-54
2023/03/21 02:13:26;;;;;;;;;;;;;;;;;;1036038;28;3929;-54
2023/03/21 02:13:57;;;;;;;;;;;;;;;;;;1037405;28;2367;-54
2023/03/21 02:14:30;;;;;;;;;;;;;;;;;;1036352;28;3899;-55
2023/03/21 02:15:01;;;;;;;;;;;;;;;;;;1037989;28;2959;-52
2023/03/21 02:15:31;;;;;;;;;;;;;;;;;;1036253;28;4027;-53
2023/03/21 02:16:07;;;;;;;;;;;;;;;;;;1037849;28;1768;-52
2023/03/21 02:16:41;;;;;;;;;;;;;;;;;;1036018;28;4138;-54
2023/03/21 02:17:17;;;;;;;;;;;;;;;;;;1036155;28;2953;-52
2023/03/21 02:17:52;;;;;;;;;;;;;;;;;;1037312;28;3868;-54
2023/03/21 02:18:31;;;;;;;;;;;;;;;;;;1038933;28;2013;-56
2023/03/21 02:19:18;;;;;;;;;;;;;;;;;;1032384;28;3927;-54
2023/03/21 02:20:00;;;;;;;;;;;;;;;;;;1037466;28;3829;-54
2023/03/21 02:20:43;;;;;;;;;;;;;;;;;;1036820;28;3903;-52
2023/03/21 02:21:13;;;;;;;;;;;;;;;;;;1037696;28;2078;-52
2023/03/21 02:22:04;;;;;;;;;;;;;;;;;;1039134;28;4177;-55
2023/03/21 02:22:52;;;;;;;;;;;;;;;;;;1038647;28;4101;-53
2023/03/21 02:23:29;;;;;;;;;;;;;;;;;;1039242;28;3061;-52
2023/03/21 02:24:06;;;;;;;;;;;;;;;;;;1039345;28;3816;-55
2023/03/21 02:24:42;;;;;;;;;;;;;;;;;;1033780;28;4878;-56
2023/03/21 02:25:19;;;;;;;;;;;;;;;;;;1039782;28;1670;-52
2023/03/21 02:25:57;;;;;;;;;;;;;;;;;;1036122;28;4370;-52
2023/03/21 02:26:39;;;;;;;;;;;;;;;;;;1037197;28;3968;-55
2023/03/21 02:27:11;;;;;;;;;;;;;;;;;;1037459;28;2675;-53
2023/03/21 02:27:47;;;;;;;;;;;;;;;;;;1038415;28;4036;-54
2023/03/21 02:28:27;;;;;;;;;;;;;;;;;;1039254;28;2186;-55
2023/03/21 02:29:01;;;;;;;;;;;;;;;;;;1037849;28;4008;-50
2023/03/21 02:29:51;;;;;;;;;;;;;;;;;;1039243;28;3939;-54
2023/03/21 02:30:40;;;;;;;;;;;;;;;;;;1037073;28;2732;-54
2023/03/21 02:31:18;;;;;;;;;;;;;;;;;;1037023;28;3894;-55
2023/03/21 02:32:08;;;;;;;;;;;;;;;;;;1039006;28;3744;-53
2023/03/21 02:32:54;;;;;;;;;;;;;;;;;;1038640;28;3894;-53
2023/03/21 02:33:24;;;;;;;;;;;;;;;;;;1036545;28;4102;-55
2023/03/21 02:34:04;;;;;;;;;;;;;;;;;;1038716;28;2298;-55
2023/03/21 02:34:37;;;;;;;;;;;;;;;;;;1035677;28;4073;-54
2023/03/21 02:35:14;;;;;;;;;;;;;;;;;;1038160;28;2831;-55
2023/03/21 02:35:50;;;;;;;;;;;;;;;;;;1037917;28;4052;-52
2023/03/21 02:36:25;;;;;;;;;;;;;;;;;;1037133;28;2677;-53
2023/03/21 02:37:13;;;;;;;;;;;;;;;;;;1037807;28;3993;-53
2023/03/21 02:37:51;;;;;;;;;;;;;;;;;;1038163;28;3939;-55
2023/03/21 02:38:47;;;;;;;;;;;;;;;;;;1037713;28;1678;-53
2023/03/21 02:39:32;;;;;;;;;;;;;;;;;;1036717;28;3984;-54
2023/03/21 02:40:09;;;;;;;;;;;;;;;;;;1034726;28;3752;-54
2023/03/21 02:41:03;;;;;;;;;;;;;;;;;;1037457;28;4425;-53
2023/03/21 02:41:40;;;;;;;;;;;;;;;;;;1034914;28;4125;-53
2023/03/21 02:42:10;;;;;;;;;;;;;;;;;;1036621;28;2823;-52
2023/03/21 02:42:41;;;;;;;;;;;;;;;;;;1040201;28;4062;-55
2023/03/21 02:43:30;;;;;;;;;;;;;;;;;;1038387;28;2210;-53
2023/03/21 02:44:10;;;;;;;;;;;;;;;;;;1037268;28;3827;-52
2023/03/21 02:44:45;;;;;;;;;;;;;;;;;;1034316;28;4062;-54
2023/03/21 02:45:18;;;;;;;;;;;;;;;;;;1035679;28;2665;-52
2023/03/21 02:45:50;;;;;;;;;;;;;;;;;;1038988;28;3854;-54
2023/03/21 02:46:21;;;;;;;;;;;;;;;;;;1037865;28;2247;-53
2023/03/21 02:47:17;;;;;;;;;;;;;;;;;;1036467;28;3867;-54
2023/03/21 02:47:50;;;;;;;;;;;;;;;;;;1033635;28;3875;-52
2023/03/21 02:48:26;;;;;;;;;;;;;;;;;;1033407;28;2872;-54
2023/03/21 02:49:02;;;;;;;;;;;;;;;;;;1033077;28;5414;-55
2023/03/21 02:49:45;;;;;;;;;;;;;;;;;;1034246;28;3985;-54
2023/03/21 02:50:22;;;;;;;;;;;;;;;;;;1036812;28;2898;-55
2023/03/21 02:50:55;;;;;;;;;;;;;;;;;;1037165;28;3945;-53
2023/03/21 02:51:27;;;;;;;;;;;;;;;;;;1038225;28;3937;-53
2023/03/21 02:51:59;;;;;;;;;;;;;;;;;;1038647;28;1791;-53
2023/03/21 02:52:31;;;;;;;;;;;;;;;;;;1038789;28;3911;-53
2023/03/21 02:53:02;;;;;;;;;;;;;;;;;;1034715;28;2866;-53
2023/03/21 02:53:35;;;;;;;;;;;;;;;;;;1036553;28;3886;-52
2023/03/21 02:54:08;;;;;;;;;;;;;;;;;;1035928;28;2833;-52
2023/03/21 02:54:40;;;;;;;;;;;;;;;;;;1037364;28;3902;-50
2023/03/21 02:55:14;;;;;;;;;;;;;;;;;;1037236;28;1713;-53
2023/03/21 02:55:45;;;;;;;;;;;;;;;;;;1037348;28;5246;-52
2023/03/21 02:56:15;;;;;;;;;;;;;;;;;;1038633;28;2215;-51
2023/03/21 02:56:47;;;;;;;;;;;;;;;;;;1037181;28;3979;-53
2023/03/21 02:57:18;;;;;;;;;;;;;;;;;;1038956;28;2785;-54
2023/03/21 02:57:50;;;;;;;;;;;;;;;;;;1037886;28;3878;-57
2023/03/21 02:58:22;;;;;;;;;;;;;;;;;;1039588;28;1841;-57
2023/03/21 02:58:53;;;;;;;;;;;;;;;;;;1035659;28;4280;-56
2023/03/21 02:59:23;;;;;;;;;;;;;;;;;;1037701;28;3873;-52
2023/03/21 02:59:54;;;;;;;;;;;;;;;;;;1037307;28;2842;-55
2023/03/21 03:00:26;;;;;;;;;;;;;;;;;;1035457;28;4067;-56
2023/03/21 03:00:57;;;;;;;;;;;;;;;;;;1038918;28;2637;-55
2023/03/21 03:01:27;;;;;;;;;;;;;;;;;;1037956;28;4529;-54
2023/03/21 03:01:58;;;;;;;;;;;;;;;;;;1037516;28;2742;-55
2023/03/21 03:02:29;;;;;;;;;;;;;;;;;;1038388;28;4042;-51
2023/03/21 03:03:00;;;;;;;;;;;;;;;;;;1039574;28;1741;-55
2023/03/21 03:03:31;;;;;;;;;;;;;;;;;;1037876;28;4043;-53
2023/03/21 03:04:01;;;;;;;;;;;;;;;;;;1036853;28;3492;-54
2023/03/21 03:04:32;;;;;;;;;;;;;;;;;;1035148;28;4501;-54
2023/03/21 03:05:11;;;;;;;;;;;;;;;;;;1038777;28;1779;-55
2023/03/21 03:05:49;;;;;;;;;;;;;;;;;;1037308;28;4268;-55
2023/03/21 03:06:40;;;;;;;;;;;;;;;;;;1035263;28;2836;-55
2023/03/21 03:07:17;;;;;;;;;;;;;;;;;;1034468;28;3919;-56
2023/03/21 03:07:47;;;;;;;;;;;;;;;;;;1035024;28;3822;-57
2023/03/21 03:08:41;;;;;;;;;;;;;;;;;;1037704;28;1749;-54
2023/03/21 03:09:21;;;;;;;;;;;;;;;;;;1036114;28;4052;-54
2023/03/21 03:09:58;;;;;;;;;;;;;;;;;;1032744;28;4022;-54
2023/03/21 03:10:41;;;;;;;;;;;;;;;;;;1037685;28;3885;-54
2023/03/21 03:11:19;;;;;;;;;;;;;;;;;;1037148;28;1876;-55
2023/03/21 03:11:54;;;;;;;;;;;;;;;;;;1036850;28;3765;-54
2023/03/21 03:12:36;;;;;;;;;;;;;;;;;;1037128;28;3898;-53
2023/03/21 03:13:06;;;;;;;;;;;;;;;;;;1038949;28;1651;-53
2023/03/21 03:13:47;;;;;;;;;;;;;;;;;;1037570;28;3835;-54
2023/03/21 03:14:17;;;;;;;;;;;;;;;;;;1038031;28;2721;-55
2023/03/21 03:15:07;;;;;;;;;;;;;;;;;;1037076;28;3862;-54
2023/03/21 03:15:46;;;;;;;;;;;;;;;;;;1035007;28;4690;-55
2023/03/21 03:16:37;;;;;;;;;;;;;;;;;;1039581;28;2311;-57
2023/03/21 03:17:15;;;;;;;;;;;;;;;;;;1038126;28;3961;-54
2023/03/21 03:17:58;;;;;;;;;;;;;;;;;;1037782;28;4004;-53
2023/03/21 03:18:34;;;;;;;;;;;;;;;;;;1035831;28;4138;-54
2023/03/21 03:19:07;;;;;;;;;;;;;;;;;;1036246;28;1835;-55
2023/03/21 03:19:50;;;;;;;;;;;;;;;;;;1038154;28;4932;-55
2023/03/21 03:20:20;;;;;;;;;;;;;;;;;;1036163;28;2915;-55
2023/03/21 03:21:00;;;;;;;;;;;;;;;;;;1039244;28;4014;-56
2023/03/21 03:21:41;;;;;;;;;;;;;;;;;;1038132;28;4143;-49
2023/03/21 03:22:15;;;;;;;;;;;;;;;;;;1036510;28;2966;-55
2023/03/21 03:22:49;;;;;;;;;;;;;;;;;;1038407;28;4230;-56
2023/03/21 03:23:39;;;;;;;;;;;;;;;;;;1037579;28;2075;-56
2023/03/21 03:24:35;;;;;;;;;;;;;;;;;;1036059;28;3584;-55
2023/03/21 03:25:10;;;;;;;;;;;;;;;;;;1029422;28;4317;-52
2023/03/21 03:25:41;;;;;;;;;;;;;;;;;;1033270;28;5337;-55
2023/03/21 03:26:14;;;;;;;;;;;;;;;;;;1036976;28;2697;-55
2023/03/21 03:26:44;;;;;;;;;;;;;;;;;;1034638;28;4042;-54
2023/03/21 03:27:26;;;;;;;;;;;;;;;;;;1038868;28;2642;-55
2023/03/21 03:27:57;;;;;;;;;;;;;;;;;;1035412;28;3850;-55
2023/03/21 03:28:30;;;;;;;;;;;;;;;;;;1037289;28;4545;-55
2023/03/21 03:29:03;;;;;;;;;;;;;;;;;;1038645;28;1760;-53
2023/03/21 03:29:36;;;;;;;;;;;;;;;;;;1036874;28;3941;-53
2023/03/21 03:30:08;;;;;;;;;;;;;;;;;;1037031;28;2963;-53
2023/03/21 03:30:39;;;;;;;;;;;;;;;;;;1039211;28;4182;-56
2023/03/21 03:31:13;;;;;;;;;;;;;;;;;;1037031;28;2628;-55
2023/03/21 03:31:55;;;;;;;;;;;;;;;;;;1038282;28;3886;-55
2023/03/21 03:32:34;;;;;;;;;;;;;;;;;;1035731;28;4072;-55
2023/03/21 03:33:05;;;;;;;;;;;;;;;;;;1038703;28;1948;-56
2023/03/21 03:33:37;;;;;;;;;;;;;;;;;;1039023;28;3910;-55
2023/03/21 03:34:09;;;;;;;;;;;;;;;;;;1038373;28;2320;-52
2023/03/21 03:34:43;;;;;;;;;;;;;;;;;;1035183;28;4248;-55
2023/03/21 03:35:15;;;;;;;;;;;;;;;;;;1037717;28;2858;-57
2023/03/21 03:35:45;;;;;;;;;;;;;;;;;;1037214;28;3909;-54
2023/03/21 03:36:17;;;;;;;;;;;;;;;;;;1036921;28;2265;-54
2023/03/21 03:36:55;;;;;;;;;;;;;;;;;;1038581;28;3979;-54
2023/03/21 03:37:30;;;;;;;;;;;;;;;;;;1036309;28;4036;-56
2023/03/21 03:38:02;;;;;;;;;;;;;;;;;;1036473;28;2671;-54
2023/03/21 03:38:34;;;;;;;;;;;;;;;;;;1038420;28;4071;-52
2023/03/21 03:39:06;;;;;;;;;;;;;;;;;;1038873;28;1662;-55
2023/03/21 03:39:38;;;;;;;;;;;;;;;;;;1037251;28;4069;-54
2023/03/21 03:40:12;;;;;;;;;;;;;;;;;;1035820;28;2925;-51
2023/03/21 03:40:44;;;;;;;;;;;;;;;;;;1038711;28;3791;-53
2023/03/21 03:41:23;;;;;;;;;;;;;;;;;;1036788;28;2206;-55
2023/03/21 03:41:56;;;;;;;;;;;;;;;;;;1037635;28;3987;-55
2023/03/21 03:42:29;;;;;;;;;;;;;;;;;;1036561;28;3884;-54
2023/03/21 03:43:01;;;;;;;;;;;;;;;;;;1039497;28;1751;-55
2023/03/21 03:43:37;;;;;;;;;;;;;;;;;;1038491;28;3842;-54
2023/03/21 03:44:07;;;;;;;;;;;;;;;;;;1037463;28;2521;-55
2023/03/21 03:44:38;;;;;;;;;;;;;;;;;;1035315;28;4054;-53
2023/03/21 03:45:09;;;;;;;;;;;;;;;;;;1035700;28;2909;-55
2023/03/21 03:45:52;;;;;;;;;;;;;;;;;;1036870;28;3955;-55
2023/03/21 03:46:22;;;;;;;;;;;;;;;;;;1039286;28;1675;-53
2023/03/21 03:47:01;;;;;;;;;;;;;;;;;;1036148;28;3873;-52
2023/03/21 03:47:31;;;;;;;;;;;;;;;;;;1038029;28;4075;-56
2023/03/21 03:48:01;;;;;;;;;;;;;;;;;;1037167;28;2754;-56
2023/03/21 03:48:34;;;;;;;;;;;;;;;;;;1035185;28;3955;-55
2023/03/21 03:49:10;;;;;;;;;;;;;;;;;;1037312;28;3132;-54
2023/03/21 03:49:45;;;;;;;;;;;;;;;;;;1037776;28;3791;-54
2023/03/21 03:50:26;;;;;;;;;;;;;;;;;;1037888;28;3049;-55
2023/03/21 03:51:02;;;;;;;;;;;;;;;;;;1037255;28;3802;-56
2023/03/21 03:51:38;;;;;;;;;;;;;;;;;;1041400;28;4248;-54
2023/03/21 03:52:12;;;;;;;;;;;;;;;;;;1037877;28;2653;-55
2023/03/21 03:52:48;;;;;;;;;;;;;;;;;;1040434;28;4085;-54
2023/03/21 03:53:23;;;;;;;;;;;;;;;;;;1040305;28;1914;-56